Time;durP1;ratioP1;P1;durP2;ratioP2;P2;SDS_P1;SDS_P2;PMS_P1;PMS_P2;Temp;Humidity;BMP_temperature;BMP_pressure;BME280_temperature;BME280_humidity;BME280_pressure;Samples;Min_cycle;Max_cycle;Signal;HPM_P1;HPM_P2
2022/09/12 00:01:11;;;;;;;4.68;1.50;;;;;;;;;;5059353;28;20028;-76
2022/09/12 00:03:38;;;;;;;6.20;1.60;;;;;;;;;;5062643;28;20059;-79
2022/09/12 00:06:12;;;;;;;5.38;1.65;;;;;;;;;;5060960;28;20075;-82
2022/09/12 00:08:38;;;;;;;5.25;1.27;;;;;;;;;;5060861;28;20029;-81
2022/09/12 00:11:07;;;;;;;2.88;1.45;;;;;;;;;;5060762;28;20017;-79
2022/09/12 00:13:33;;;;;;;3.95;1.45;;;;;;;;;;5062903;28;20477;-81
2022/09/12 00:15:59;;;;;;;6.38;1.70;;;;;;;;;;5058582;28;20037;-84
2022/09/12 00:18:26;;;;;;;2.65;1.63;;;;;;;;;;5063510;28;20107;-76
2022/09/12 00:20:52;;;;;;;2.42;1.27;;;;;;;;;;5055653;28;20415;-81
2022/09/12 00:23:19;;;;;;;5.90;1.55;;;;;;;;;;5062369;28;20033;-82
2022/09/12 00:25:46;;;;;;;3.88;1.35;;;;;;;;;;5057277;28;20108;-81
2022/09/12 00:28:13;;;;;;;2.97;1.30;;;;;;;;;;5058854;28;20056;-81
2022/09/12 00:30:41;;;;;;;6.60;1.60;;;;;;;;;;5064714;28;20488;-83
2022/09/12 00:33:07;;;;;;;4.78;1.33;;;;;;;;;;5056994;28;20067;-81
2022/09/12 00:35:33;;;;;;;3.75;1.63;;;;;;;;;;5061998;28;20029;-79
2022/09/12 00:37:59;;;;;;;2.30;1.23;;;;;;;;;;5056537;28;20041;-81
2022/09/12 00:40:27;;;;;;;5.53;1.33;;;;;;;;;;5055494;28;20024;-80
2022/09/12 00:42:53;;;;;;;4.80;1.60;;;;;;;;;;5061090;28;20029;-81
2022/09/12 00:45:23;;;;;;;5.93;1.85;;;;;;;;;;5063250;28;20024;-79
2022/09/12 00:47:49;;;;;;;4.30;1.65;;;;;;;;;;5059816;28;20110;-77
2022/09/12 00:50:16;;;;;;;3.70;1.42;;;;;;;;;;5059482;28;20045;-80
2022/09/12 00:52:42;;;;;;;7.47;1.83;;;;;;;;;;5063478;28;20082;-80
2022/09/12 00:55:20;;;;;;;5.70;1.75;;;;;;;;;;5057274;28;20032;-80
2022/09/12 00:57:53;;;;;;;10.23;1.70;;;;;;;;;;5063583;28;20038;-82
2022/09/12 01:00:20;;;;;;;8.02;1.63;;;;;;;;;;5059567;28;20020;-77
2022/09/12 01:02:50;;;;;;;2.58;1.27;;;;;;;;;;5058837;28;20834;-81
2022/09/12 01:05:17;;;;;;;3.75;1.73;;;;;;;;;;5059705;28;20031;-79
2022/09/12 01:07:43;;;;;;;3.03;1.33;;;;;;;;;;5058683;28;20081;-79
2022/09/12 01:10:10;;;;;;;6.88;1.65;;;;;;;;;;5057879;28;20017;-79
2022/09/12 01:12:38;;;;;;;2.25;1.20;;;;;;;;;;5062723;28;20033;-81
2022/09/12 01:15:04;;;;;;;3.95;1.50;;;;;;;;;;5056576;28;20468;-81
2022/09/12 01:17:49;;;;;;;4.53;1.52;;;;;;;;;;5061980;28;20025;-79
2022/09/12 01:20:22;;;;;;;3.03;1.70;;;;;;;;;;5053191;28;20469;-79
2022/09/12 01:22:48;;;;;;;4.63;1.70;;;;;;;;;;5062116;28;20066;-80
2022/09/12 01:25:20;;;;;;;2.13;1.52;;;;;;;;;;5053781;28;20036;-80
2022/09/12 01:27:52;;;;;;;7.75;1.80;;;;;;;;;;5054643;28;20075;-77
2022/09/12 01:30:21;;;;;;;4.22;1.65;;;;;;;;;;5056521;28;20423;-80
2022/09/12 01:33:06;;;;;;;4.07;1.70;;;;;;;;;;5059095;28;20093;-74
2022/09/12 01:35:41;;;;;;;5.18;1.55;;;;;;;;;;5059140;28;20028;-78
2022/09/12 01:38:10;;;;;;;8.80;2.15;;;;;;;;;;5062411;28;20035;-77
2022/09/12 01:40:51;;;;;;;3.70;1.85;;;;;;;;;;5058068;28;20104;-80
2022/09/12 01:43:30;;;;;;;3.78;1.42;;;;;;;;;;5058321;28;20028;-81
2022/09/12 01:46:01;;;;;;;4.60;1.63;;;;;;;;;;5060288;28;20029;-75
2022/09/12 01:48:30;;;;;;;7.55;1.95;;;;;;;;;;5059182;28;20528;-80
2022/09/12 01:51:04;;;;;;;5.95;1.80;;;;;;;;;;5058632;28;20354;-81
2022/09/12 01:53:34;;;;;;;2.97;1.60;;;;;;;;;;5052613;28;20516;-81
2022/09/12 01:56:06;;;;;;;3.05;1.83;;;;;;;;;;5055050;28;20448;-81
2022/09/12 01:58:42;;;;;;;7.45;1.80;;;;;;;;;;5054429;28;20036;-79
2022/09/12 02:01:24;;;;;;;6.43;1.50;;;;;;;;;;5055110;28;20025;-82
2022/09/12 02:03:50;;;;;;;;;;;;;;;;;;5057584;28;20052;-80
2022/09/12 02:06:22;;;;;;;5.45;1.80;;;;;;;;;;5054924;28;20365;-81
2022/09/12 02:08:51;;;;;;;3.33;1.50;;;;;;;;;;5057860;28;20025;-80
2022/09/12 02:11:18;;;;;;;4.97;1.75;;;;;;;;;;5058790;28;20036;-80
2022/09/12 02:13:49;;;;;;;5.15;1.40;;;;;;;;;;5058273;28;20035;-78
2022/09/12 02:16:18;;;;;;;5.43;1.80;;;;;;;;;;5057307;28;20028;-79
2022/09/12 02:18:45;;;;;;;7.13;1.95;;;;;;;;;;5060053;28;20042;-82
2022/09/12 02:21:11;;;;;;;7.53;1.70;;;;;;;;;;5060628;28;20021;-78
2022/09/12 02:23:40;;;;;;;2.08;1.40;;;;;;;;;;5062819;28;20033;-82
2022/09/12 02:26:11;;;;;;;6.32;1.85;;;;;;;;;;5058229;28;20040;-80
2022/09/12 02:28:39;;;;;;;6.95;2.40;;;;;;;;;;5065893;28;20035;-77
2022/09/12 02:31:28;;;;;;;5.10;1.70;;;;;;;;;;5056674;28;20031;-80
2022/09/12 02:34:03;;;;;;;5.38;1.70;;;;;;;;;;5059083;28;20036;-80
2022/09/12 02:36:35;;;;;;;8.20;1.98;;;;;;;;;;5062477;28;20028;-81
2022/09/12 02:39:01;;;;;;;5.45;1.90;;;;;;;;;;5063026;28;20480;-80
2022/09/12 02:41:27;;;;;;;3.95;1.50;;;;;;;;;;5060897;28;20115;-80
2022/09/12 02:43:54;;;;;;;5.95;1.33;;;;;;;;;;5059369;28;20442;-81
2022/09/12 02:46:26;;;;;;;9.70;2.22;;;;;;;;;;5059935;28;20057;-78
2022/09/12 02:48:52;;;;;;;6.05;1.77;;;;;;;;;;5062588;28;20036;-80
2022/09/12 02:51:20;;;;;;;4.65;1.90;;;;;;;;;;5061433;28;20032;-80
2022/09/12 02:53:46;;;;;;;8.73;1.77;;;;;;;;;;5061800;28;20396;-78
2022/09/12 02:56:17;;;;;;;4.13;1.73;;;;;;;;;;5065157;28;20025;-76
2022/09/12 02:58:43;;;;;;;6.60;1.70;;;;;;;;;;5060014;28;20703;-79
2022/09/12 03:01:15;;;;;;;10.32;1.88;;;;;;;;;;5061140;28;20021;-78
2022/09/12 03:04:01;;;;;;;4.78;1.67;;;;;;;;;;5059298;28;20029;-76
2022/09/12 03:06:37;;;;;;;6.15;1.67;;;;;;;;;;5057506;28;20052;-76
2022/09/12 03:09:11;;;;;;;5.78;1.70;;;;;;;;;;5063252;28;20051;-76
2022/09/12 03:11:45;;;;;;;6.50;1.48;;;;;;;;;;5058370;28;20033;-77
2022/09/12 03:14:12;;;;;;;4.78;2.13;;;;;;;;;;5060944;28;20519;-80
2022/09/12 03:16:53;;;;;;;9.68;1.88;;;;;;;;;;5058556;28;20599;-79
2022/09/12 03:19:19;;;;;;;;;;;;;;;;;;5056579;28;20039;-80
2022/09/12 03:21:58;;;;;;;8.05;1.52;;;;;;;;;;5051035;28;19909;-78
2022/09/12 03:24:37;;;;;;;7.85;1.55;;;;;;;;;;5053731;28;20071;-77
2022/09/12 03:27:13;;;;;;;5.95;1.63;;;;;;;;;;5053284;28;20029;-80
2022/09/12 03:29:40;;;;;;;7.68;1.50;;;;;;;;;;5059784;28;20050;-80
2022/09/12 03:32:06;;;;;;;7.60;1.70;;;;;;;;;;5055645;28;20072;-76
2022/09/12 03:34:33;;;;;;;4.65;1.67;;;;;;;;;;5059168;28;20027;-79
2022/09/12 03:36:59;;;;;;;6.63;1.83;;;;;;;;;;5055562;28;20024;-80
2022/09/12 03:39:25;;;;;;;3.33;1.27;;;;;;;;;;5056691;28;20041;-79
2022/09/12 03:41:52;;;;;;;4.25;1.40;;;;;;;;;;5052162;28;20413;-76
2022/09/12 03:44:19;;;;;;;5.68;2.40;;;;;;;;;;5056749;28;20363;-80
2022/09/12 03:46:45;;;;;;;5.90;1.70;;;;;;;;;;5054808;28;20020;-80
2022/09/12 03:49:12;;;;;;;7.88;1.55;;;;;;;;;;5052534;28;20052;-80
2022/09/12 03:51:38;;;;;;;6.03;1.70;;;;;;;;;;5053592;28;20031;-81
2022/09/12 03:54:05;;;;;;;6.10;1.20;;;;;;;;;;5056664;28;20029;-80
2022/09/12 03:56:31;;;;;;;5.28;1.30;;;;;;;;;;5054149;28;20067;-81
2022/09/12 03:58:57;;;;;;;8.93;1.70;;;;;;;;;;5055272;28;20028;-81
2022/09/12 04:01:24;;;;;;;5.10;1.45;;;;;;;;;;5057345;28;20055;-80
2022/09/12 04:03:51;;;;;;;8.57;1.70;;;;;;;;;;5058856;28;20066;-81
2022/09/12 04:06:18;;;;;;;3.80;1.42;;;;;;;;;;5053153;28;20028;-78
2022/09/12 04:08:49;;;;;;;7.80;1.45;;;;;;;;;;5056511;28;20029;-77
2022/09/12 04:11:15;;;;;;;3.40;1.25;;;;;;;;;;5053777;28;20032;-82
2022/09/12 04:13:42;;;;;;;4.22;1.35;;;;;;;;;;5057478;28;20041;-81
2022/09/12 04:16:09;;;;;;;7.20;1.63;;;;;;;;;;5055661;28;20604;-79
2022/09/12 04:18:35;;;;;;;6.45;1.75;;;;;;;;;;5051904;28;20042;-80
2022/09/12 04:21:05;;;;;;;3.45;1.10;;;;;;;;;;5054021;28;20028;-80
2022/09/12 04:23:32;;;;;;;7.60;1.58;;;;;;;;;;5052349;28;20020;-80
2022/09/12 04:25:59;;;;;;;4.28;1.27;;;;;;;;;;5055570;28;20037;-81
2022/09/12 04:28:27;;;;;;;6.22;1.50;;;;;;;;;;5049326;28;20238;-80
2022/09/12 04:30:54;;;;;;;5.32;1.30;;;;;;;;;;5055506;28;20025;-80
2022/09/12 04:33:20;;;;;;;5.97;1.20;;;;;;;;;;5053699;28;20493;-80
2022/09/12 04:35:46;;;;;;;6.18;1.35;;;;;;;;;;5054788;28;20029;-79
2022/09/12 04:38:13;;;;;;;4.38;1.08;;;;;;;;;;5050111;28;20029;-80
2022/09/12 04:40:39;;;;;;;4.60;1.77;;;;;;;;;;5057674;28;20622;-78
2022/09/12 04:43:05;;;;;;;5.32;1.67;;;;;;;;;;5053004;28;20036;-74
2022/09/12 04:45:32;;;;;;;9.85;1.75;;;;;;;;;;5057925;28;20469;-80
2022/09/12 04:47:59;;;;;;;4.63;1.67;;;;;;;;;;5053238;28;20028;-80
2022/09/12 04:50:25;;;;;;;4.00;1.60;;;;;;;;;;5054484;28;20481;-79
2022/09/12 04:52:52;;;;;;;3.38;1.15;;;;;;;;;;5052226;28;20035;-81
2022/09/12 04:55:18;;;;;;;5.20;1.40;;;;;;;;;;5054528;28;20017;-81
2022/09/12 04:57:44;;;;;;;4.45;1.40;;;;;;;;;;5054696;28;20495;-80
2022/09/12 05:00:12;;;;;;;6.03;1.42;;;;;;;;;;5054452;28;20101;-81
2022/09/12 05:02:38;;;;;;;5.47;1.67;;;;;;;;;;5053577;28;20078;-82
2022/09/12 05:05:05;;;;;;;13.25;1.42;;;;;;;;;;5051809;28;20053;-75
2022/09/12 05:07:31;;;;;;;5.10;1.77;;;;;;;;;;5054706;28;20438;-76
2022/09/12 05:09:57;;;;;;;2.90;1.25;;;;;;;;;;5051372;28;20032;-75
2022/09/12 05:12:24;;;;;;;5.47;1.52;;;;;;;;;;5055400;28;20036;-75
2022/09/12 05:14:50;;;;;;;5.82;1.55;;;;;;;;;;5052368;28;20277;-76
2022/09/12 05:17:16;;;;;;;5.88;1.50;;;;;;;;;;5054431;28;20017;-75
2022/09/12 05:19:42;;;;;;;5.60;1.77;;;;;;;;;;5052697;28;20043;-72
2022/09/12 05:22:09;;;;;;;7.72;1.58;;;;;;;;;;5056676;28;20131;-75
2022/09/12 05:24:38;;;;;;;9.20;1.65;;;;;;;;;;5052733;28;20586;-76
2022/09/12 05:27:04;;;;;;;8.38;1.88;;;;;;;;;;5053078;28;20036;-74
2022/09/12 05:29:31;;;;;;;7.25;1.40;;;;;;;;;;5051530;28;20021;-73
2022/09/12 05:31:57;;;;;;;4.53;1.17;;;;;;;;;;5052658;28;20040;-75
2022/09/12 05:34:23;;;;;;;5.38;1.23;;;;;;;;;;5052623;28;20025;-74
2022/09/12 05:36:49;;;;;;;7.03;1.50;;;;;;;;;;5054192;28;20423;-76
2022/09/12 05:39:15;;;;;;;7.38;1.60;;;;;;;;;;5055061;28;20024;-75
2022/09/12 05:41:42;;;;;;;8.18;2.28;;;;;;;;;;5058003;28;20646;-75
2022/09/12 05:44:11;;;;;;;5.95;2.20;;;;;;;;;;5058815;28;20732;-74
2022/09/12 05:46:39;;;;;;;11.27;2.10;;;;;;;;;;5049752;28;20065;-76
2022/09/12 05:49:06;;;;;;;5.07;2.15;;;;;;;;;;5057400;28;20041;-78
2022/09/12 05:51:33;;;;;;;6.78;2.00;;;;;;;;;;5050430;28;20033;-75
2022/09/12 05:54:00;;;;;;;5.63;1.80;;;;;;;;;;5050999;28;20601;-75
2022/09/12 05:56:32;;;;;;;5.43;2.05;;;;;;;;;;5048426;28;20078;-74
2022/09/12 05:58:58;;;;;;;;;;;;;;;;;;5049813;28;20025;-76
2022/09/12 06:01:24;;;;;;;4.97;1.42;;;;;;;;;;5050133;28;19958;-75
2022/09/12 06:03:52;;;;;;;3.35;1.48;;;;;;;;;;5058882;28;20053;-75
2022/09/12 06:06:20;;;;;;;8.77;1.83;;;;;;;;;;5047913;28;20042;-75
2022/09/12 06:08:47;;;;;;;5.75;1.80;;;;;;;;;;5047565;28;20539;-75
2022/09/12 06:11:18;;;;;;;3.90;1.70;;;;;;;;;;5047865;28;20500;-76
2022/09/12 06:13:44;;;;;;;7.85;1.83;;;;;;;;;;5050606;28;20111;-73
2022/09/12 06:16:15;;;;;;;7.70;1.50;;;;;;;;;;5047806;28;20056;-75
2022/09/12 06:18:41;;;;;;;7.53;1.80;;;;;;;;;;5048450;28;20063;-77
2022/09/12 06:21:11;;;;;;;6.25;1.55;;;;;;;;;;5051867;28;20060;-74
2022/09/12 06:23:38;;;;;;;4.90;1.25;;;;;;;;;;5046373;28;20045;-76
2022/09/12 06:26:05;;;;;;;6.63;1.58;;;;;;;;;;5048054;28;20472;-74
2022/09/12 06:28:32;;;;;;;6.38;1.48;;;;;;;;;;5045315;28;20032;-77
2022/09/12 06:31:08;;;;;;;4.60;1.30;;;;;;;;;;5048137;28;20469;-76
2022/09/12 06:33:35;;;;;;;3.55;1.42;;;;;;;;;;5046500;28;20187;-77
2022/09/12 06:36:03;;;;;;;5.97;1.48;;;;;;;;;;5045434;28;20021;-74
2022/09/12 06:38:30;;;;;;;7.25;1.77;;;;;;;;;;5045635;28;20511;-74
2022/09/12 06:40:56;;;;;;;4.97;1.20;;;;;;;;;;5047717;28;20035;-75
2022/09/12 06:43:23;;;;;;;4.30;1.70;;;;;;;;;;5046496;28;20090;-75
2022/09/12 06:45:49;;;;;;;6.15;1.40;;;;;;;;;;5048662;28;20433;-74
2022/09/12 06:48:16;;;;;;;5.70;1.33;;;;;;;;;;5050126;28;20595;-76
2022/09/12 06:50:42;;;;;;;9.60;2.03;;;;;;;;;;5051946;28;20450;-76
2022/09/12 06:53:08;;;;;;;6.18;1.40;;;;;;;;;;5047287;28;20037;-74
2022/09/12 06:55:35;;;;;;;5.75;1.60;;;;;;;;;;5049589;28;20036;-77
2022/09/12 06:58:01;;;;;;;4.85;1.50;;;;;;;;;;5048883;28;20032;-76
2022/09/12 07:00:27;;;;;;;8.35;1.30;;;;;;;;;;5047826;28;20029;-76
2022/09/12 07:02:55;;;;;;;4.18;1.15;;;;;;;;;;5050544;28;20037;-74
2022/09/12 07:05:21;;;;;;;6.50;1.40;;;;;;;;;;5047324;28;20441;-75
2022/09/12 07:07:47;;;;;;;6.15;1.23;;;;;;;;;;5045247;28;20048;-75
2022/09/12 07:10:14;;;;;;;7.93;1.45;;;;;;;;;;5048570;28;20068;-75
2022/09/12 07:12:40;;;;;;;2.65;1.30;;;;;;;;;;5043409;28;20615;-76
2022/09/12 07:15:06;;;;;;;3.55;1.17;;;;;;;;;;5046301;28;20029;-76
2022/09/12 07:17:32;;;;;;;6.93;1.45;;;;;;;;;;5046524;28;20095;-76
2022/09/12 07:19:58;;;;;;;2.92;1.17;;;;;;;;;;5053244;28;20610;-76
2022/09/12 07:22:25;;;;;;;7.00;1.42;;;;;;;;;;5046929;28;20549;-77
2022/09/12 07:24:52;;;;;;;4.53;1.50;;;;;;;;;;5044398;28;20029;-76
2022/09/12 07:27:19;;;;;;;4.10;1.27;;;;;;;;;;5045241;28;20155;-75
2022/09/12 07:29:46;;;;;;;3.75;1.52;;;;;;;;;;5044774;28;20028;-76
2022/09/12 07:32:12;;;;;;;3.72;1.67;;;;;;;;;;5048036;28;20074;-77
2022/09/12 07:34:38;;;;;;;3.88;1.30;;;;;;;;;;5043605;28;20141;-76
2022/09/12 07:37:05;;;;;;;5.47;1.15;;;;;;;;;;5046070;28;20104;-76
2022/09/12 07:39:31;;;;;;;4.68;1.20;;;;;;;;;;5043672;28;20056;-75
2022/09/12 07:41:59;;;;;;;6.63;1.30;;;;;;;;;;5043203;28;20021;-76
2022/09/12 07:44:25;;;;;;;3.95;1.38;;;;;;;;;;5051306;28;20040;-75
2022/09/12 07:46:52;;;;;;;5.50;1.70;;;;;;;;;;5043835;28;20017;-75
2022/09/12 07:49:18;;;;;;;4.50;1.35;;;;;;;;;;5044387;28;20036;-75
2022/09/12 07:51:44;;;;;;;4.97;1.42;;;;;;;;;;5043014;28;20052;-75
2022/09/12 07:54:10;;;;;;;6.55;1.80;;;;;;;;;;5057867;28;20573;-76
2022/09/12 07:56:37;;;;;;;4.78;1.08;;;;;;;;;;5044295;28;20025;-75
2022/09/12 07:59:03;;;;;;;6.18;1.90;;;;;;;;;;5060179;28;20033;-76
2022/09/12 08:01:29;;;;;;;4.13;1.10;;;;;;;;;;5042636;28;20063;-74
2022/09/12 08:03:57;;;;;;;7.95;1.23;;;;;;;;;;5046971;28;20020;-75
2022/09/12 08:06:23;;;;;;;5.05;1.40;;;;;;;;;;5064101;28;20376;-75
2022/09/12 08:08:50;;;;;;;4.60;1.30;;;;;;;;;;5048453;28;20295;-75
2022/09/12 08:11:17;;;;;;;4.43;1.10;;;;;;;;;;5046979;28;20031;-75
2022/09/12 08:13:44;;;;;;;2.40;1.20;;;;;;;;;;5044159;28;20560;-75
2022/09/12 08:16:16;;;;;;;5.90;1.25;;;;;;;;;;5047349;28;20033;-77
2022/09/12 08:18:42;;;;;;;5.93;1.80;;;;;;;;;;5044951;28;20047;-74
2022/09/12 08:21:13;;;;;;;3.47;1.20;;;;;;;;;;5047865;28;20057;-76
2022/09/12 08:23:39;;;;;;;4.65;1.50;;;;;;;;;;5048509;28;20032;-76
2022/09/12 08:26:06;;;;;;;5.05;1.52;;;;;;;;;;5047059;28;20025;-73
2022/09/12 08:28:33;;;;;;;4.72;1.40;;;;;;;;;;5046018;28;20040;-74
2022/09/12 08:31:00;;;;;;;3.38;1.30;;;;;;;;;;5047318;28;20033;-74
2022/09/12 08:33:31;;;;;;;8.38;1.70;;;;;;;;;;5045509;28;20045;-75
2022/09/12 08:36:09;;;;;;;8.82;1.90;;;;;;;;;;5050382;28;20048;-74
2022/09/12 08:38:36;;;;;;;2.10;1.13;;;;;;;;;;5046963;28;20029;-76
2022/09/12 08:41:11;;;;;;;9.07;1.70;;;;;;;;;;5055385;28;20022;-78
2022/09/12 08:43:40;;;;;;;6.15;1.60;;;;;;;;;;5058826;28;20024;-76
2022/09/12 08:46:11;;;;;;;5.55;1.55;;;;;;;;;;5059486;28;20025;-75
2022/09/12 08:48:37;;;;;;;2.73;1.20;;;;;;;;;;5051023;28;20544;-76
2022/09/12 08:51:04;;;;;;;6.57;1.25;;;;;;;;;;5044199;28;20020;-75
2022/09/12 08:53:33;;;;;;;2.25;1.10;;;;;;;;;;5045097;28;20033;-74
2022/09/12 08:56:02;;;;;;;4.00;1.23;;;;;;;;;;5044441;28;20049;-74
2022/09/12 08:58:29;;;;;;;4.38;1.25;;;;;;;;;;5044346;28;20115;-74
2022/09/12 09:01:02;;;;;;;6.28;1.13;;;;;;;;;;5048584;28;20027;-73
2022/09/12 09:03:48;;;;;;;6.93;1.63;;;;;;;;;;5052788;28;20031;-74
2022/09/12 09:06:32;;;;;;;7.18;1.10;;;;;;;;;;5055409;28;20013;-74
2022/09/12 09:09:06;;;;;;;3.97;1.25;;;;;;;;;;5054421;28;20028;-75
2022/09/12 09:11:41;;;;;;;5.22;1.20;;;;;;;;;;5053850;28;20024;-74
2022/09/12 09:16:53;;;;;;;3.88;1.00;;;;;;;;;;5050279;28;20047;-75
2022/09/12 09:19:40;;;;;;;4.93;1.42;;;;;;;;;;5044654;28;20393;-76
2022/09/12 09:22:16;;;;;;;6.18;1.33;;;;;;;;;;5046334;28;20641;-75
2022/09/12 09:24:48;;;;;;;4.88;1.25;;;;;;;;;;5052830;28;20585;-75
2022/09/12 09:27:18;;;;;;;5.45;1.42;;;;;;;;;;5057631;28;20111;-75
2022/09/12 09:29:46;;;;;;;4.95;1.40;;;;;;;;;;5056646;28;20025;-76
2022/09/12 09:32:16;;;;;;;3.65;1.05;;;;;;;;;;5056320;28;20041;-76
2022/09/12 09:34:42;;;;;;;4.60;1.33;;;;;;;;;;5056087;28;20021;-76
2022/09/12 09:37:27;;;;;;;2.90;1.27;;;;;;;;;;5057457;28;20442;-75
2022/09/12 09:40:01;;;;;;;2.95;1.02;;;;;;;;;;5056954;28;20021;-76
2022/09/12 09:42:27;;;;;;;3.67;1.10;;;;;;;;;;5056504;28;20036;-76
2022/09/12 09:44:55;;;;;;;4.65;1.50;;;;;;;;;;5053653;28;20024;-74
2022/09/12 09:47:21;;;;;;;4.88;1.52;;;;;;;;;;5057534;28;20026;-75
2022/09/12 09:49:48;;;;;;;5.85;1.20;;;;;;;;;;5049936;28;20044;-76
2022/09/12 09:52:15;;;;;;;4.50;1.25;;;;;;;;;;5056808;28;20032;-76
2022/09/12 09:54:53;;;;;;;4.47;1.60;;;;;;;;;;5058414;28;20028;-75
2022/09/12 09:57:45;;;;;;;4.72;1.63;;;;;;;;;;5052611;28;20035;-75
2022/09/12 10:00:26;;;;;;;2.38;1.02;;;;;;;;;;5048881;28;20439;-75
2022/09/12 10:03:08;;;;;;;3.28;1.13;;;;;;;;;;5052543;28;20145;-75
2022/09/12 10:05:45;;;;;;;3.33;1.08;;;;;;;;;;5051116;28;20018;-75
2022/09/12 10:08:19;;;;;;;3.65;1.67;;;;;;;;;;5055752;28;20555;-75
2022/09/12 10:11:00;;;;;;;6.45;1.17;;;;;;;;;;5054165;28;20209;-76
2022/09/12 10:13:35;;;;;;;5.00;1.50;;;;;;;;;;5054468;28;20106;-75
2022/09/12 10:16:02;;;;;;;5.72;1.35;;;;;;;;;;5056770;28;20032;-75
2022/09/12 10:18:36;;;;;;;5.10;1.58;;;;;;;;;;5054835;28;20029;-78
2022/09/12 10:21:12;;;;;;;2.40;1.35;;;;;;;;;;5053935;28;20834;-75
2022/09/12 10:23:40;;;;;;;4.45;1.48;;;;;;;;;;5055032;28;20070;-75
2022/09/12 10:26:10;;;;;;;5.10;1.35;;;;;;;;;;5051614;28;20120;-76
2022/09/12 10:28:42;;;;;;;4.80;1.50;;;;;;;;;;5074959;28;20024;-77
2022/09/12 10:31:09;;;;;;;7.15;1.63;;;;;;;;;;5062081;28;20043;-77
2022/09/12 10:33:41;;;;;;;4.15;1.58;;;;;;;;;;5056960;28;20044;-75
2022/09/12 10:36:07;;;;;;;3.85;1.60;;;;;;;;;;5060731;28;20048;-76
2022/09/12 10:38:34;;;;;;;2.70;1.23;;;;;;;;;;5058584;28;20025;-77
2022/09/12 10:41:07;;;;;;;4.15;1.30;;;;;;;;;;5060752;28;21069;-76
2022/09/12 10:43:36;;;;;;;5.95;1.33;;;;;;;;;;5059301;28;20033;-76
2022/09/12 10:46:17;;;;;;;5.15;1.30;;;;;;;;;;5062403;28;21126;-76
2022/09/12 10:48:50;;;;;;;4.05;1.35;;;;;;;;;;5060097;28;20044;-76
2022/09/12 10:51:27;;;;;;;4.15;1.20;;;;;;;;;;5058426;28;20031;-79
2022/09/12 10:53:55;;;;;;;8.73;1.33;;;;;;;;;;5059769;28;20047;-79
2022/09/12 10:56:22;;;;;;;3.03;1.10;;;;;;;;;;5056603;28;20037;-77
2022/09/12 10:59:07;;;;;;;5.15;1.35;;;;;;;;;;5057981;28;20067;-77
2022/09/12 11:01:50;;;;;;;4.97;1.20;;;;;;;;;;5052975;28;20016;-78
2022/09/12 11:04:34;;;;;;;4.32;1.17;;;;;;;;;;5058909;28;20035;-77
2022/09/12 11:07:03;;;;;;;5.50;1.50;;;;;;;;;;5057984;28;20033;-75
2022/09/12 11:09:35;;;;;;;2.15;1.20;;;;;;;;;;5057081;28;20024;-76
2022/09/12 11:12:18;;;;;;;5.85;1.52;;;;;;;;;;5056995;28;20590;-78
2022/09/12 11:14:55;;;;;;;5.47;1.70;;;;;;;;;;5050523;28;20485;-78
2022/09/12 11:17:27;;;;;;;3.38;1.20;;;;;;;;;;5044520;28;20083;-76
2022/09/12 11:20:09;;;;;;;2.83;1.30;;;;;;;;;;5050678;28;20263;-77
2022/09/12 11:22:50;;;;;;;5.07;1.42;;;;;;;;;;5058583;28;20024;-77
2022/09/12 11:25:27;;;;;;;5.47;1.75;;;;;;;;;;5048882;28;20384;-77
2022/09/12 11:28:12;;;;;;;3.65;1.23;;;;;;;;;;5058452;28;20039;-77
2022/09/12 11:30:56;;;;;;;5.25;1.27;;;;;;;;;;5056893;28;20029;-77
2022/09/12 11:33:22;;;;;;;11.45;1.92;;;;;;;;;;5046895;28;20044;-77
2022/09/12 11:35:50;;;;;;;6.38;1.73;;;;;;;;;;5046276;28;20064;-75
2022/09/12 11:38:35;;;;;;;4.65;1.30;;;;;;;;;;5044400;28;20029;-75
2022/09/12 11:41:09;;;;;;;4.97;1.73;;;;;;;;;;5050056;28;20044;-76
2022/09/12 11:43:38;;;;;;;2.85;1.20;;;;;;;;;;5049749;28;20029;-77
2022/09/12 11:46:13;;;;;;;2.92;1.13;;;;;;;;;;5055104;28;20426;-75
2022/09/12 11:48:59;;;;;;;3.13;1.00;;;;;;;;;;5055253;28;20033;-76
2022/09/12 11:51:28;;;;;;;6.15;1.50;;;;;;;;;;5059647;28;20036;-76
2022/09/12 11:54:04;;;;;;;5.53;1.20;;;;;;;;;;5054383;28;20037;-76
2022/09/12 11:56:31;;;;;;;3.97;1.63;;;;;;;;;;5057779;28;20118;-75
2022/09/12 11:59:11;;;;;;;3.05;1.20;;;;;;;;;;5053959;28;20359;-76
2022/09/12 12:01:41;;;;;;;3.97;1.42;;;;;;;;;;5055652;28;20054;-76
2022/09/12 12:04:15;;;;;;;1.48;0.85;;;;;;;;;;5054466;28;20029;-76
2022/09/12 12:06:56;;;;;;;3.75;1.20;;;;;;;;;;5054038;28;20285;-77
2022/09/12 12:09:22;;;;;;;4.38;1.25;;;;;;;;;;5057596;28;20243;-77
2022/09/12 12:11:50;;;;;;;8.20;1.52;;;;;;;;;;5048562;28;20396;-77
2022/09/12 12:14:19;;;;;;;4.45;1.33;;;;;;;;;;5055494;28;20048;-78
2022/09/12 12:16:46;;;;;;;4.28;1.52;;;;;;;;;;5058853;28;20054;-76
2022/09/12 12:19:15;;;;;;;3.78;1.30;;;;;;;;;;5053476;28;20040;-76
2022/09/12 12:21:42;;;;;;;2.15;0.95;;;;;;;;;;5051824;28;20052;-77
2022/09/12 12:24:08;;;;;;;4.78;1.00;;;;;;;;;;5050908;28;20048;-75
2022/09/12 12:26:41;;;;;;;5.32;1.15;;;;;;;;;;5050236;28;20104;-78
2022/09/12 12:29:12;;;;;;;5.47;1.60;;;;;;;;;;5047066;28;20491;-76
2022/09/12 12:31:58;;;;;;;4.47;1.00;;;;;;;;;;5054284;28;20024;-76
2022/09/12 12:34:29;;;;;;;6.80;1.80;;;;;;;;;;5046507;28;20266;-76
2022/09/12 12:36:56;;;;;;;8.77;2.08;;;;;;;;;;5045904;28;20643;-77
2022/09/12 12:39:31;;;;;;;11.15;1.83;;;;;;;;;;5051590;28;20095;-76
2022/09/12 12:41:58;;;;;;;2.08;1.00;;;;;;;;;;5047040;28;20020;-76
2022/09/12 12:44:42;;;;;;;4.20;1.38;;;;;;;;;;5056106;28;20021;-76
2022/09/12 12:47:20;;;;;;;3.58;1.27;;;;;;;;;;5056198;28;20036;-77
2022/09/12 12:49:52;;;;;;;3.65;1.30;;;;;;;;;;5051950;28;20587;-76
2022/09/12 12:52:18;;;;;;;;;;;;;;;;;;5045659;28;20037;-76
2022/09/12 12:54:44;;;;;;;3.55;1.50;;;;;;;;;;5052868;28;20583;-76
2022/09/12 12:57:16;;;;;;;4.68;1.42;;;;;;;;;;5056701;28;20020;-76
2022/09/12 12:59:57;;;;;;;3.83;1.25;;;;;;;;;;5050689;28;20036;-77
2022/09/12 13:02:26;;;;;;;4.35;1.42;;;;;;;;;;5056205;28;20030;-77
2022/09/12 13:04:53;;;;;;;2.67;1.48;;;;;;;;;;5056625;28;20017;-76
2022/09/12 13:07:31;;;;;;;5.95;1.42;;;;;;;;;;5053666;28;20059;-76
2022/09/12 13:09:57;;;;;;;4.15;1.20;;;;;;;;;;5046546;28;20025;-74
2022/09/12 13:12:26;;;;;;;2.90;1.20;;;;;;;;;;5053750;28;20495;-76
2022/09/12 13:14:59;;;;;;;7.13;1.33;;;;;;;;;;5052405;28;20046;-75
2022/09/12 13:17:33;;;;;;;3.63;1.80;;;;;;;;;;5055248;28;20025;-77
2022/09/12 13:20:06;;;;;;;3.90;1.52;;;;;;;;;;5055136;28;20101;-75
2022/09/12 13:22:48;;;;;;;3.42;1.15;;;;;;;;;;5055434;28;20028;-76
2022/09/12 13:25:22;;;;;;;3.58;1.27;;;;;;;;;;5053273;28;20602;-76
2022/09/12 13:27:58;;;;;;;5.25;1.33;;;;;;;;;;5052905;28;20055;-74
2022/09/12 13:30:25;;;;;;;5.18;1.48;;;;;;;;;;5054534;28;20484;-77
2022/09/12 13:32:52;;;;;;;2.83;1.00;;;;;;;;;;5055882;28;20033;-76
2022/09/12 13:35:24;;;;;;;2.55;1.17;;;;;;;;;;5054434;28;20025;-76
2022/09/12 13:38:09;;;;;;;7.65;1.55;;;;;;;;;;5052617;28;20426;-76
2022/09/12 13:40:45;;;;;;;3.97;1.35;;;;;;;;;;5049801;28;20050;-76
2022/09/12 13:43:17;;;;;;;3.65;1.27;;;;;;;;;;5052105;28;20067;-75
2022/09/12 13:45:45;;;;;;;2.67;1.20;;;;;;;;;;5055095;28;20025;-75
2022/09/12 13:48:19;;;;;;;2.15;1.20;;;;;;;;;;5049236;28;20115;-73
2022/09/12 13:50:48;;;;;;;3.45;1.20;;;;;;;;;;5054798;28;20333;-74
2022/09/12 13:53:16;;;;;;;4.68;1.40;;;;;;;;;;5051607;28;20032;-76
2022/09/12 13:55:45;;;;;;;9.48;1.70;;;;;;;;;;5056720;28;20031;-76
2022/09/12 13:58:17;;;;;;;3.13;1.30;;;;;;;;;;5056770;28;20485;-77
2022/09/12 14:00:43;;;;;;;2.90;1.13;;;;;;;;;;5049113;28;20037;-76
2022/09/12 14:06:17;;;;;;;5.50;1.33;;;;;;;;;;5053688;28;20101;-75
2022/09/12 14:08:44;;;;;;;3.70;1.52;;;;;;;;;;5057080;28;20025;-75
2022/09/12 14:11:11;;;;;;;6.72;1.80;;;;;;;;;;5047992;28;20036;-75
2022/09/12 14:13:38;;;;;;;4.50;1.20;;;;;;;;;;5047166;28;20044;-75
2022/09/12 14:16:08;;;;;;;3.50;1.40;;;;;;;;;;5060840;28;20032;-76
2022/09/12 14:18:36;;;;;;;7.65;1.70;;;;;;;;;;5057163;28;20461;-77
2022/09/12 14:21:27;;;;;;;5.32;1.33;;;;;;;;;;5053907;28;20041;-74
2022/09/12 14:23:54;;;;;;;3.33;1.10;;;;;;;;;;5056247;28;20108;-76
2022/09/12 14:26:21;;;;;;;4.93;1.40;;;;;;;;;;5058538;28;20427;-74
2022/09/12 14:28:47;;;;;;;4.63;1.50;;;;;;;;;;5056391;28;20558;-77
2022/09/12 14:31:17;;;;;;;6.57;1.75;;;;;;;;;;5057082;28;20016;-77
2022/09/12 14:33:50;;;;;;;5.55;2.08;;;;;;;;;;5054816;28;20118;-77
2022/09/12 14:36:24;;;;;;;5.57;1.90;;;;;;;;;;5056303;28;20097;-76
2022/09/12 14:39:00;;;;;;;5.38;2.00;;;;;;;;;;5057172;28;20027;-76
2022/09/12 14:41:34;;;;;;;3.40;1.60;;;;;;;;;;5057968;28;20052;-76
2022/09/12 14:44:04;;;;;;;5.47;1.33;;;;;;;;;;5056728;28;20447;-75
2022/09/12 14:46:34;;;;;;;4.30;1.58;;;;;;;;;;5055429;28;20024;-79
2022/09/12 14:49:12;;;;;;;4.20;1.30;;;;;;;;;;5057379;28;20033;-77
2022/09/12 14:51:40;;;;;;;6.28;1.67;;;;;;;;;;5054673;28;20279;-76
2022/09/12 14:54:25;;;;;;;5.38;2.17;;;;;;;;;;5056107;28;20649;-77
2022/09/12 14:56:56;;;;;;;5.43;1.52;;;;;;;;;;5050390;28;20037;-76
2022/09/12 14:59:25;;;;;;;4.40;1.42;;;;;;;;;;5046207;28;20225;-77
2022/09/12 15:02:11;;;;;;;5.50;1.88;;;;;;;;;;5044655;28;20021;-73
2022/09/12 15:04:38;;;;;;;3.00;1.35;;;;;;;;;;5047235;28;20577;-76
2022/09/12 15:07:21;;;;;;;4.07;1.42;;;;;;;;;;5051039;28;20128;-76